Time;durP1;ratioP1;P1;durP2;ratioP2;P2;SDS_P1;SDS_P2;PMS_P1;PMS_P2;Temp;Humidity;BMP_temperature;BMP_pressure;BME280_temperature;BME280_humidity;BME280_pressure;Samples;Min_cycle;Max_cycle;Signal;HPM_P1;HPM_P2
2022/09/08 00:00:39;;;;;;;5.60;2.72;;;;;;;5.48;100.00;100816.86;1624099;88;21088;-56
2022/09/08 00:03:09;;;;;;;6.45;2.70;;;;;;;5.48;100.00;100818.62;1624065;87;21855;-55
2022/09/08 00:05:55;;;;;;;4.65;2.42;;;;;;;5.47;100.00;100818.30;1626145;87;21650;-64
2022/09/08 00:08:22;;;;;;;5.75;2.58;;;;;;;5.44;100.00;100816.79;1626687;88;21109;-64
2022/09/08 00:10:52;;;;;;;6.53;2.55;;;;;;;5.39;100.00;100818.16;1626721;88;21644;-55
2022/09/08 00:13:19;;;;;;;5.20;2.52;;;;;;;5.33;100.00;100820.31;1626309;87;21871;-56
2022/09/08 00:15:46;;;;;;;4.58;2.83;;;;;;;5.34;100.00;100822.42;1626285;87;22508;-55
2022/09/08 00:18:14;;;;;;;4.95;2.37;;;;;;;5.33;100.00;100811.27;1626318;88;21011;-55
2022/09/08 00:20:41;;;;;;;4.37;2.33;;;;;;;5.33;100.00;100815.14;1626555;87;21153;-58
2022/09/08 00:23:09;;;;;;;4.20;2.30;;;;;;;5.32;100.00;100822.56;1626610;87;21079;-63
2022/09/08 00:25:38;;;;;;;4.65;2.30;;;;;;;5.29;100.00;100818.14;1626439;88;21353;-55
2022/09/08 00:28:07;;;;;;;5.22;2.60;;;;;;;5.29;100.00;100817.66;1626301;88;20936;-57
2022/09/08 00:30:36;;;;;;;4.55;2.30;;;;;;;5.28;100.00;100819.09;1626699;87;21493;-54
2022/09/08 00:33:03;;;;;;;5.40;2.45;;;;;;;5.26;100.00;100815.34;1625977;87;21011;-57
2022/09/08 00:35:30;;;;;;;4.72;2.60;;;;;;;5.21;100.00;100814.94;1626229;87;22060;-56
2022/09/08 00:37:57;;;;;;;4.92;2.60;;;;;;;5.22;100.00;100815.27;1627237;87;21847;-56
2022/09/08 00:40:25;;;;;;;6.22;2.77;;;;;;;5.26;100.00;100812.75;1627066;87;20952;-55
2022/09/08 00:43:01;;;;;;;5.25;2.62;;;;;;;5.27;100.00;100813.59;1626929;87;20948;-56
2022/09/08 00:45:40;;;;;;;4.97;2.55;;;;;;;5.21;100.00;100803.79;1627031;88;21098;-54
2022/09/08 00:48:16;;;;;;;6.05;2.60;;;;;;;5.21;100.00;100802.49;1627143;88;21015;-55
2022/09/08 00:50:45;;;;;;;4.75;2.90;;;;;;;5.19;100.00;100810.84;1625959;88;21267;-55
2022/09/08 00:53:14;;;;;;;3.98;2.12;;;;;;;5.16;100.00;100808.55;1626527;87;21350;-54
2022/09/08 00:55:43;;;;;;;6.12;2.35;;;;;;;5.15;100.00;100806.89;1626936;87;20972;-56
2022/09/08 00:58:10;;;;;;;5.05;2.83;;;;;;;5.16;100.00;100802.09;1625920;87;20960;-56
2022/09/08 01:00:41;;;;;;;5.08;2.60;;;;;;;5.15;100.00;100801.73;1626092;88;21082;-62
2022/09/08 01:03:09;;;;;;;4.75;2.60;;;;;;;5.10;100.00;100802.13;1626445;87;21346;-53
2022/09/08 01:05:53;;;;;;;5.42;3.00;;;;;;;5.05;100.00;100805.12;1626774;87;20968;-53
2022/09/08 01:14:50;;;;;;;6.12;2.80;;;;;;;4.94;100.00;100792.33;1626225;87;21028;-55
2022/09/08 01:17:24;;;;;;;5.83;2.47;;;;;;;4.87;100.00;100793.32;1626530;86;21276;-55
2022/09/08 01:19:51;;;;;;;5.47;3.10;;;;;;;4.82;100.00;100792.10;1626884;88;21563;-53
2022/09/08 01:22:26;;;;;;;4.53;2.50;;;;;;;4.74;100.00;100790.66;1626657;87;21317;-54
2022/09/08 01:25:39;;;;;;;4.40;2.47;;;;;;;4.69;100.00;100788.92;1626243;88;21529;-53
2022/09/08 01:28:17;;;;;;;6.60;2.52;;;;;;;4.68;100.00;100787.30;1613058;88;21097;-55
2022/09/08 01:30:46;;;;;;;4.97;3.17;;;;;;;4.60;100.00;100784.89;1598852;88;21260;-58
2022/09/08 01:33:13;;;;;;;4.83;2.72;;;;;;;4.57;100.00;100787.73;1626137;88;21090;-54
2022/09/08 01:35:41;;;;;;;4.60;2.62;;;;;;;4.57;100.00;100791.61;1626576;88;21035;-55
2022/09/08 01:38:08;;;;;;;5.78;3.50;;;;;;;4.53;100.00;100787.66;1626345;86;21291;-54
2022/09/08 01:40:38;;;;;;;5.87;3.65;;;;;;;4.50;100.00;100785.81;1626618;87;21109;-54
2022/09/08 01:43:08;;;;;;;6.60;3.98;;;;;;;4.46;100.00;100781.38;1625550;88;21210;-54
2022/09/08 01:45:39;;;;;;;7.85;3.60;;;;;;;4.44;100.00;100779.42;1626927;87;21087;-54
2022/09/08 01:48:07;;;;;;;4.97;3.35;;;;;;;4.45;100.00;100779.75;1626688;88;25255;-54
2022/09/08 01:50:34;;;;;;;5.80;2.60;;;;;;;4.42;100.00;100780.48;1626496;87;21094;-55
2022/09/08 01:53:02;;;;;;;5.00;2.90;;;;;;;4.38;100.00;100777.34;1626231;87;20900;-54
2022/09/08 01:55:30;;;;;;;4.72;2.27;;;;;;;4.31;100.00;100783.97;1626543;88;21432;-54
2022/09/08 01:57:57;;;;;;;4.47;2.58;;;;;;;4.36;100.00;100785.70;1625802;88;20979;-54
2022/09/08 02:00:24;;;;;;;4.47;2.70;;;;;;;4.41;100.00;100772.41;1626317;87;21074;-54
2022/09/08 02:02:52;;;;;;;6.62;3.02;;;;;;;4.44;100.00;100778.60;1625994;88;21039;-60
2022/09/08 02:05:19;;;;;;;4.25;2.55;;;;;;;4.45;100.00;100779.75;1626090;86;20955;-55
2022/09/08 02:07:46;;;;;;;4.62;2.75;;;;;;;4.50;100.00;100780.64;1626358;87;21349;-61
2022/09/08 02:10:14;;;;;;;4.60;2.08;;;;;;;4.51;100.00;100775.81;1626170;88;22492;-53
2022/09/08 02:12:42;;;;;;;5.15;2.83;;;;;;;4.52;100.00;100776.18;1626597;87;20996;-54
2022/09/08 02:15:11;;;;;;;5.25;2.80;;;;;;;4.41;100.00;100782.73;1626004;87;20964;-61
2022/09/08 02:17:39;;;;;;;5.97;2.55;;;;;;;4.45;100.00;100777.17;1626336;88;21404;-61
2022/09/08 02:20:07;;;;;;;5.67;2.90;;;;;;;4.36;100.00;100781.84;1625981;86;22703;-55
2022/09/08 02:22:35;;;;;;;4.65;2.45;;;;;;;4.37;100.00;100779.59;1626598;88;21043;-54
2022/09/08 02:25:03;;;;;;;4.15;2.40;;;;;;;4.36;100.00;100783.94;1626565;88;21019;-53
2022/09/08 02:27:30;;;;;;;4.53;2.47;;;;;;;4.34;100.00;100781.95;1625878;88;20971;-54
2022/09/08 02:29:57;;;;;;;6.00;2.75;;;;;;;4.34;100.00;100786.30;1625518;87;21151;-55
2022/09/08 02:32:25;;;;;;;4.15;2.42;;;;;;;4.34;100.00;100780.66;1626356;88;22169;-54
2022/09/08 02:34:52;;;;;;;4.42;2.70;;;;;;;4.33;100.00;100785.96;1626087;88;21494;-54
2022/09/08 02:37:20;;;;;;;4.58;2.40;;;;;;;4.31;100.00;100787.36;1626355;88;21439;-55
2022/09/08 02:39:47;;;;;;;4.47;2.33;;;;;;;4.30;100.00;100788.80;1626150;87;20963;-60
2022/09/08 02:42:15;;;;;;;4.85;3.00;;;;;;;4.27;100.00;100789.05;1626663;86;21853;-54
2022/09/08 02:44:42;;;;;;;5.35;2.95;;;;;;;4.26;100.00;100788.71;1626986;87;21277;-54
2022/09/08 02:47:11;;;;;;;5.53;2.83;;;;;;;4.24;100.00;100793.16;1626891;88;20996;-55
2022/09/08 02:49:38;;;;;;;6.08;2.65;;;;;;;4.23;100.00;100792.83;1626293;87;21631;-54
2022/09/08 02:52:05;;;;;;;5.17;2.65;;;;;;;4.27;100.00;100797.59;1626127;88;21015;-54
2022/09/08 02:54:32;;;;;;;4.42;2.42;;;;;;;4.28;100.00;100795.83;1626510;88;21594;-54
2022/09/08 02:57:00;;;;;;;6.15;2.87;;;;;;;4.33;100.00;100797.58;1626656;87;21162;-54
2022/09/08 02:59:27;;;;;;;4.95;2.95;;;;;;;4.33;100.00;100795.80;1625992;88;20963;-55
2022/09/08 03:01:55;;;;;;;6.17;3.00;;;;;;;4.35;100.00;100794.38;1626713;88;21090;-60
2022/09/08 03:04:23;;;;;;;6.00;3.27;;;;;;;4.36;100.00;100796.84;1627142;87;21257;-54
2022/09/08 03:06:50;;;;;;;4.75;3.05;;;;;;;4.45;100.00;100793.14;1634503;86;21012;-54
2022/09/08 03:09:17;;;;;;;6.15;3.40;;;;;;;4.45;100.00;100793.14;1634148;87;22313;-54
2022/09/08 03:11:45;;;;;;;7.40;3.42;;;;;;;4.50;100.00;100791.78;1616898;87;21130;-58
2022/09/08 03:14:12;;;;;;;9.43;3.83;;;;;;;4.52;100.00;100794.25;1633839;86;21007;-54
2022/09/08 03:16:40;;;;;;;7.40;3.62;;;;;;;4.55;100.00;100792.70;1634188;86;21065;-56
2022/09/08 03:19:08;;;;;;;6.15;3.20;;;;;;;4.59;100.00;100800.05;1634009;87;21090;-56
2022/09/08 03:21:35;;;;;;;7.35;3.70;;;;;;;4.64;100.00;100795.78;1634076;86;21245;-56
2022/09/08 03:24:03;;;;;;;9.50;3.92;;;;;;;4.91;100.00;100795.17;1633574;87;21798;-57
2022/09/08 03:26:31;;;;;;;7.97;3.60;;;;;;;5.50;100.00;100792.17;1634161;87;21960;-56
2022/09/08 03:28:58;;;;;;;8.23;3.92;;;;;;;6.28;100.00;100794.14;1634160;87;21496;-60
2022/09/08 03:31:25;;;;;;;7.47;3.83;;;;;;;7.24;100.00;100795.89;1633652;87;21078;-58
2022/09/08 03:33:53;;;;;;;6.75;3.72;;;;;;;8.28;100.00;100794.68;1633628;87;21173;-58
2022/09/08 03:36:21;;;;;;;7.30;3.83;;;;;;;9.35;100.00;100785.42;1634485;87;21075;-56
2022/09/08 03:38:48;;;;;;;5.77;3.20;;;;;;;10.39;100.00;100776.84;1634603;86;21010;-56
2022/09/08 03:41:15;;;;;;;6.97;3.57;;;;;;;11.38;100.00;100772.17;1634369;87;21190;-62
2022/09/08 03:43:44;;;;;;;6.67;3.50;;;;;;;13.23;100.00;100769.08;1634142;87;21244;-56
2022/09/08 03:46:11;;;;;;;6.30;3.63;;;;;;;13.23;100.00;100769.08;1633726;87;22284;-55
2022/09/08 03:48:39;;;;;;;6.53;3.70;;;;;;;14.19;100.00;100758.06;1634070;86;21787;-53
2022/09/08 03:51:25;;;;;;;5.87;3.60;;;;;;;15.04;100.00;100754.94;1634211;86;21512;-54
2022/09/08 03:53:48;;;;;;;5.63;3.83;;;;;;;15.76;100.00;100754.66;1633683;86;22187;-63
2022/09/08 03:56:15;;;;;;;5.30;3.20;;;;;;;16.45;100.00;100753.75;1633914;86;21559;-54
2022/09/08 03:58:43;;;;;;;6.53;3.63;;;;;;;17.01;100.00;100745.16;1634379;87;22229;-54
2022/09/08 04:01:16;;;;;;;7.20;3.77;;;;;;;17.63;100.00;100738.67;1634256;86;21063;-54
2022/09/08 04:03:43;;;;;;;5.70;3.87;;;;;;;18.20;87.34;100738.79;1634279;87;21383;-58
2022/09/08 04:06:10;;;;;;;10.00;5.70;;;;;;;18.64;75.19;100737.34;1611836;87;21019;-55
2022/09/08 04:08:38;;;;;;;9.00;5.67;;;;;;;19.04;70.07;100734.12;1604666;89;21086;-54
2022/09/08 04:11:06;;;;;;;10.70;6.57;;;;;;;19.53;64.97;100736.87;1604859;89;21174;-55
2022/09/08 04:13:33;;;;;;;12.10;6.70;;;;;;;19.82;61.26;100737.01;1604315;89;20978;-53
2022/09/08 04:16:02;;;;;;;8.07;5.50;;;;;;;20.13;58.21;100735.27;1603835;89;21023;-55
2022/09/08 04:18:30;;;;;;;8.13;5.23;;;;;;;20.51;55.40;100737.88;1587346;89;21493;-54
2022/09/08 04:21:02;;;;;;;7.70;5.20;;;;;;;20.89;53.71;100734.56;1604616;89;21509;-62
2022/09/08 04:23:31;;;;;;;7.50;4.90;;;;;;;21.30;51.59;100741.05;1604402;89;21597;-55
2022/09/08 04:25:59;;;;;;;11.77;5.13;;;;;;;21.75;50.69;100729.52;1604371;89;21024;-55
2022/09/08 04:28:26;;;;;;;6.40;4.80;;;;;;;22.16;47.50;100724.22;1605142;89;21990;-54
2022/09/08 04:30:53;;;;;;;7.63;4.33;;;;;;;22.23;46.43;100730.12;1604778;89;21059;-55
2022/09/08 04:33:20;;;;;;;9.87;5.63;;;;;;;21.83;46.01;100727.77;1603949;89;21105;-54
2022/09/08 04:35:48;;;;;;;7.00;4.97;;;;;;;21.03;45.79;100735.07;1604934;88;21263;-54
2022/09/08 04:38:16;;;;;;;7.23;4.83;;;;;;;20.16;47.19;100741.42;1603837;88;20927;-56
2022/09/08 04:40:43;;;;;;;9.93;6.90;;;;;;;19.42;48.49;100745.60;1604926;89;21484;-54
2022/09/08 04:43:10;;;;;;;14.00;9.70;;;;;;;18.77;49.92;100741.64;1604307;89;20936;-53
2022/09/08 04:45:39;;;;;;;12.30;9.27;;;;;;;18.09;52.17;100742.16;1604357;89;21502;-54
2022/09/08 04:48:06;;;;;;;10.67;5.27;;;;;;;17.53;54.19;100754.17;1604203;88;22243;-61
2022/09/08 04:50:33;;;;;;;7.37;4.87;;;;;;;16.94;56.33;100754.42;1604979;89;21068;-55
2022/09/08 04:53:01;;;;;;;8.33;4.87;;;;;;;16.38;59.24;100755.59;1604500;89;22178;-62
2022/09/08 04:55:28;;;;;;;6.93;4.27;;;;;;;15.86;64.21;100754.73;1604563;89;20935;-53
2022/09/08 04:57:55;;;;;;;8.60;5.70;;;;;;;15.42;70.05;100757.47;1604702;89;20990;-54
2022/09/08 05:00:23;;;;;;;13.63;7.10;;;;;;;15.06;77.26;100754.73;1604128;89;21277;-55
2022/09/08 05:02:50;;;;;;;8.50;6.13;;;;;;;14.80;84.53;100755.48;1604654;89;21118;-54
2022/09/08 05:05:17;;;;;;;9.63;5.90;;;;;;;14.54;89.56;100753.08;1603652;87;21848;-56
2022/09/08 05:07:46;;;;;;;8.00;4.90;;;;;;;14.39;95.38;100750.27;1604752;89;21288;-54
2022/09/08 05:10:14;;;;;;;9.30;4.60;;;;;;;14.32;100.00;100745.83;1604694;89;20911;-57
2022/09/08 05:12:43;;;;;;;7.10;3.90;;;;;;;14.31;100.00;100751.25;1604868;89;21049;-54
2022/09/08 05:15:10;;;;;;;11.30;5.27;;;;;;;14.35;100.00;100748.54;1604596;89;20951;-60
2022/09/08 05:17:37;;;;;;;7.03;4.70;;;;;;;14.30;100.00;100749.64;1604990;89;21039;-54
2022/09/08 05:20:07;;;;;;;6.67;4.10;;;;;;;14.26;100.00;100741.35;1604592;89;21125;-56
2022/09/08 05:22:34;;;;;;;7.00;4.27;;;;;;;14.30;100.00;100743.89;1604466;89;21028;-54
2022/09/08 05:25:01;;;;;;;8.07;5.00;;;;;;;14.28;100.00;100741.14;1604955;89;21077;-57
2022/09/08 05:27:28;;;;;;;7.23;4.57;;;;;;;14.28;100.00;100739.36;1603988;89;21019;-56
2022/09/08 05:29:56;;;;;;;7.93;4.63;;;;;;;14.35;100.00;100739.36;1604727;89;21018;-56
2022/09/08 05:32:24;;;;;;;7.80;4.27;;;;;;;14.49;100.00;100741.06;1605080;89;21011;-56
2022/09/08 05:34:51;;;;;;;7.87;4.80;;;;;;;14.76;100.00;100735.89;1604501;89;21150;-55
2022/09/08 05:37:18;;;;;;;7.47;4.83;;;;;;;15.13;100.00;100737.17;1604207;89;21904;-54
2022/09/08 05:39:46;;;;;;;6.40;4.03;;;;;;;15.51;100.00;100729.48;1604824;89;21508;-56
2022/09/08 05:42:13;;;;;;;6.47;4.27;;;;;;;15.81;100.00;100727.75;1604313;89;21521;-55
2022/09/08 05:44:41;;;;;;;8.70;4.50;;;;;;;16.17;100.00;100738.26;1604101;89;20928;-57
2022/09/08 05:47:08;;;;;;;7.43;4.23;;;;;;;16.48;100.00;100736.23;1604242;89;21034;-63
2022/09/08 05:49:36;;;;;;;6.93;4.37;;;;;;;16.83;100.00;100736.67;1604110;89;21262;-53
2022/09/08 05:52:05;;;;;;;6.33;4.40;;;;;;;17.12;98.65;100739.21;1604781;89;20991;-56
2022/09/08 05:54:33;;;;;;;7.50;4.57;;;;;;;17.42;93.31;100741.98;1604362;89;20979;-55
2022/09/08 05:57:00;;;;;;;6.23;4.07;;;;;;;17.82;86.89;100736.89;1604068;89;21071;-57
2022/09/08 05:59:27;;;;;;;7.90;4.63;;;;;;;18.21;81.23;100733.80;1604351;89;21042;-55
2022/09/08 06:01:55;;;;;;;6.77;5.03;;;;;;;18.47;74.36;100738.45;1604691;89;22298;-55
2022/09/08 06:04:22;;;;;;;6.77;4.87;;;;;;;18.68;74.95;100739.30;1604950;89;21110;-53
2022/09/08 06:06:49;;;;;;;12.30;8.70;;;;;;;19.07;72.45;100737.12;1595308;88;21513;-63
2022/09/08 06:09:18;;;;;;;10.90;6.53;;;;;;;19.39;67.84;100736.28;1626438;88;21034;-53
2022/09/08 06:11:46;;;;;;;16.00;10.50;;;;;;;19.58;64.51;100736.17;1626786;88;21460;-55
2022/09/08 06:14:13;;;;;;;10.67;6.20;;;;;;;19.63;62.49;100729.20;1626650;88;21228;-55
2022/09/08 06:16:42;;;;;;;10.40;6.67;;;;;;;19.63;61.80;100731.05;1626718;87;21075;-61
2022/09/08 06:19:11;;;;;;;8.37;5.53;;;;;;;19.60;61.92;100728.30;1625725;88;20960;-54
2022/09/08 06:21:38;;;;;;;9.20;5.47;;;;;;;19.84;63.65;100729.10;1626840;88;21078;-54
2022/09/08 06:24:06;;;;;;;9.17;5.57;;;;;;;20.39;62.82;100731.27;1626767;87;20999;-54
2022/09/08 06:26:47;;;;;;;7.10;5.03;;;;;;;21.06;59.63;100731.95;1626744;88;21209;-55
2022/09/08 06:29:48;;;;;;;5.57;4.50;;;;;;;21.90;55.20;100728.92;1626125;88;21098;-54
2022/09/08 06:32:23;;;;;;;7.60;4.70;;;;;;;23.01;51.44;100730.64;1626401;87;20912;-63
2022/09/08 06:34:58;;;;;;;6.70;5.67;;;;;;;24.32;46.71;100724.17;1626392;87;21714;-55
2022/09/08 06:37:50;;;;;;;6.80;5.03;;;;;;;25.19;44.70;100729.59;1625960;88;21534;-54
2022/09/08 06:40:33;;;;;;;5.17;3.85;;;;;;;25.63;42.58;100730.31;1596549;88;21196;-55
2022/09/08 06:43:26;;;;;;;5.20;3.80;;;;;;;25.85;40.40;100730.80;1626528;88;21023;-61
2022/09/08 06:45:56;;;;;;;4.75;3.47;;;;;;;25.76;39.47;100731.59;1626025;88;21408;-54
2022/09/08 06:48:32;;;;;;;6.28;3.47;;;;;;;25.79;39.22;100731.88;1626347;88;21083;-54
2022/09/08 06:51:38;;;;;;;3.92;2.80;;;;;;;25.98;39.06;100732.08;1626283;88;21043;-54
2022/09/08 06:54:42;;;;;;;4.15;3.02;;;;;;;26.22;38.86;100724.23;1626475;86;21179;-63
2022/09/08 06:57:33;;;;;;;3.92;2.92;;;;;;;26.26;38.16;100719.92;1626762;88;21374;-54
2022/09/08 07:00:28;;;;;;;4.47;3.05;;;;;;;26.31;37.83;100721.77;1626208;88;21070;-55
2022/09/08 07:03:31;;;;;;;4.30;3.15;;;;;;;26.55;37.62;100719.22;1627056;88;21095;-54
2022/09/08 07:06:09;;;;;;;4.45;3.17;;;;;;;27.22;36.23;100716.83;1627904;87;21479;-54
2022/09/08 07:09:01;;;;;;;4.05;2.60;;;;;;;27.51;34.97;100713.58;1633978;87;21896;-63
2022/09/08 07:11:57;;;;;;;3.85;2.40;;;;;;;27.51;34.97;100713.58;1634168;87;21109;-55
2022/09/08 07:14:53;;;;;;;3.52;2.50;;;;;;;28.03;33.82;100721.25;1633630;87;21371;-58
2022/09/08 07:17:34;;;;;;;5.05;2.60;;;;;;;28.53;33.54;100720.88;1609367;89;21140;-57
2022/09/08 07:20:04;;;;;;;;;;;;;;;29.02;32.56;100718.22;1611870;88;21441;-55
2022/09/08 07:22:50;;;;;;;5.42;2.50;;;;;;;29.43;31.58;100721.48;1621226;87;21192;-53
2022/09/08 07:25:34;;;;;;;3.87;2.70;;;;;;;29.62;30.37;100714.70;1621635;87;21019;-54
2022/09/08 07:28:19;;;;;;;6.37;2.92;;;;;;;29.71;30.37;100712.36;1634498;87;21133;-54
2022/09/08 07:30:56;;;;;;;3.33;2.00;;;;;;;29.87;29.08;100706.12;1634144;87;21600;-53
2022/09/08 07:33:38;;;;;;;4.35;2.85;;;;;;;29.73;28.58;100698.06;1634451;87;21438;-54
2022/09/08 07:36:39;;;;;;;4.42;1.92;;;;;;;29.57;28.52;100695.42;1617363;87;21953;-55
2022/09/08 07:39:22;;;;;;;4.10;2.10;;;;;;;29.48;27.96;100691.30;1634156;87;21074;-54
2022/09/08 07:41:54;;;;;;;3.90;2.27;;;;;;;29.29;28.30;100697.33;1634709;87;21580;-53
2022/09/08 07:44:21;;;;;;;3.47;2.15;;;;;;;29.36;28.10;100688.84;1633857;87;21003;-62
2022/09/08 07:47:30;;;;;;;3.22;2.15;;;;;;;29.58;27.12;100687.08;1634309;87;21081;-55
2022/09/08 07:53:55;;;;;;;3.42;2.58;;;;;;;29.39;26.75;100683.68;1633664;87;21035;-55
2022/09/08 07:56:45;;;;;;;4.65;3.37;;;;;;;29.25;27.11;100681.02;1634369;87;20988;-56
2022/09/08 07:59:34;;;;;;;4.45;3.35;;;;;;;29.28;26.04;100683.11;1633994;87;20963;-55
2022/09/08 08:02:29;;;;;;;5.03;3.40;;;;;;;29.28;25.77;100676.39;1632890;87;21039;-56
2022/09/08 08:05:26;;;;;;;3.70;2.62;;;;;;;29.25;26.22;100681.02;1634519;87;21611;-55
2022/09/08 08:08:19;;;;;;;3.58;3.00;;;;;;;29.46;25.48;100667.97;1633601;87;21446;-59
2022/09/08 08:11:22;;;;;;;5.60;3.30;;;;;;;29.71;25.58;100658.63;1609628;87;21516;-56
2022/09/08 08:14:31;;;;;;;3.77;2.58;;;;;;;29.88;25.68;100655.84;1633812;86;21030;-55
2022/09/08 08:17:21;;;;;;;4.33;3.17;;;;;;;29.95;25.37;100647.61;1634497;87;21093;-55
2022/09/08 08:20:14;;;;;;;4.50;3.42;;;;;;;30.01;25.12;100636.20;1633632;86;21089;-55
2022/09/08 08:22:49;;;;;;;4.28;3.67;;;;;;;30.16;24.68;100641.26;1634569;87;20944;-56
2022/09/08 08:25:29;;;;;;;4.55;3.85;;;;;;;30.23;24.24;100635.43;1634384;87;21027;-55
2022/09/08 08:28:17;;;;;;;5.70;4.60;;;;;;;30.25;23.88;100632.69;1633917;87;21027;-56
2022/09/08 08:31:10;;;;;;;4.80;3.77;;;;;;;30.17;23.67;100637.45;1633520;87;21105;-56
2022/09/08 08:33:50;;;;;;;4.60;3.87;;;;;;;30.19;23.28;100621.83;1633226;87;21198;-56
2022/09/08 08:36:20;;;;;;;4.73;3.70;;;;;;;29.88;23.22;100624.94;1634272;87;21007;-55
2022/09/08 08:38:51;;;;;;;4.83;3.47;;;;;;;29.49;23.90;100622.26;1617388;87;21908;-53
2022/09/08 08:41:30;;;;;;;5.50;4.22;;;;;;;29.19;24.27;100626.36;1634001;86;21117;-54
2022/09/08 08:44:25;;;;;;;4.80;3.80;;;;;;;28.99;24.49;100618.16;1633030;86;21053;-55
2022/09/08 08:47:41;;;;;;;4.95;3.60;;;;;;;28.79;24.38;100625.47;1633973;87;21278;-55
2022/09/08 08:50:22;;;;;;;4.33;3.30;;;;;;;28.62;24.74;100617.17;1634044;87;21071;-55
2022/09/08 08:53:10;;;;;;;7.17;4.03;;;;;;;28.85;24.75;100617.56;1633840;86;21035;-54
2022/09/08 08:55:58;;;;;;;4.60;3.30;;;;;;;29.10;24.34;100610.16;1618263;87;21916;-55
2022/09/08 08:58:48;;;;;;;5.58;4.03;;;;;;;28.60;24.37;100603.25;1634262;86;21433;-55
2022/09/08 09:01:39;;;;;;;5.25;4.12;;;;;;;28.60;24.37;100603.25;1626079;86;21353;-54
2022/09/08 09:04:31;;;;;;;4.75;3.62;;;;;;;28.18;25.28;100615.70;1633702;87;21487;-62
2022/09/08 09:07:13;;;;;;;6.22;3.30;;;;;;;28.28;24.93;100606.17;1631365;86;21075;-57
2022/09/08 09:09:50;;;;;;;5.03;3.70;;;;;;;28.57;24.84;100597.95;1625841;88;21032;-56
2022/09/08 09:12:38;;;;;;;6.22;3.80;;;;;;;28.91;24.15;100596.02;1626307;87;21028;-54
2022/09/08 09:15:44;;;;;;;5.35;3.98;;;;;;;29.07;24.04;100585.25;1626288;87;21234;-56
2022/09/08 09:18:37;;;;;;;4.65;3.60;;;;;;;29.20;24.22;100585.78;1625785;88;21474;-58
2022/09/08 09:21:36;;;;;;;5.22;4.03;;;;;;;29.13;24.17;100588.06;1626316;88;21496;-54
2022/09/08 09:24:48;;;;;;;7.15;3.65;;;;;;;28.90;24.24;100601.91;1625658;87;21034;-60
2022/09/08 09:27:32;;;;;;;4.75;3.30;;;;;;;28.89;24.21;100597.64;1625698;87;21015;-55
2022/09/08 09:30:21;;;;;;;5.90;3.90;;;;;;;29.11;24.04;100580.88;1600447;88;21949;-55
2022/09/08 09:33:28;;;;;;;5.60;3.42;;;;;;;29.24;24.33;100590.00;1625484;87;20999;-62
2022/09/08 09:36:18;;;;;;;5.08;3.27;;;;;;;29.32;23.63;100583.41;1626193;87;20967;-66
2022/09/08 09:39:06;;;;;;;5.30;4.17;;;;;;;29.43;23.87;100583.95;1627147;87;21517;-55
2022/09/08 09:42:05;;;;;;;5.08;3.25;;;;;;;29.55;23.77;100593.66;1626221;87;21019;-62
2022/09/08 09:44:59;;;;;;;6.40;3.75;;;;;;;29.57;23.49;100586.10;1626412;88;21230;-55
2022/09/08 09:47:40;;;;;;;5.20;3.77;;;;;;;29.56;23.64;100586.39;1625139;87;21592;-56
2022/09/08 09:50:32;;;;;;;4.45;3.55;;;;;;;29.39;23.55;100591.03;1626550;87;21046;-56
2022/09/08 09:53:32;;;;;;;6.45;3.47;;;;;;;29.11;23.76;100591.61;1614437;88;21188;-56
2022/09/08 09:56:46;;;;;;;4.70;3.40;;;;;;;29.02;23.68;100590.73;1625278;88;21035;-64
2022/09/08 09:59:36;;;;;;;4.95;3.58;;;;;;;28.99;24.45;100588.64;1626471;88;21264;-55
2022/09/08 10:02:24;;;;;;;4.53;3.40;;;;;;;29.17;23.74;100590.42;1626624;87;21019;-55
2022/09/08 10:05:22;;;;;;;4.60;3.40;;;;;;;29.29;23.70;100595.29;1626087;87;21030;-57
2022/09/08 10:08:27;;;;;;;4.08;3.45;;;;;;;29.30;23.60;100596.87;1631054;87;38114;-58
2022/09/08 10:11:12;;;;;;;5.08;3.60;;;;;;;29.27;23.84;100592.09;1634419;86;21079;-56
2022/09/08 10:14:06;;;;;;;4.95;3.60;;;;;;;29.20;23.84;100593.83;1633625;87;21246;-65
2022/09/08 10:17:15;;;;;;;5.53;3.52;;;;;;;28.99;23.80;100587.30;1633422;87;21481;-55
2022/09/08 10:20:19;;;;;;;4.08;3.30;;;;;;;29.00;24.21;100595.59;1633760;87;21066;-54
2022/09/08 10:23:10;;;;;;;4.95;3.10;;;;;;;29.19;23.74;100589.56;1634431;87;21530;-56
2022/09/08 10:26:13;;;;;;;4.45;3.47;;;;;;;29.36;23.15;100586.80;1634037;86;21042;-55
2022/09/08 10:29:09;;;;;;;4.47;3.00;;;;;;;29.03;23.50;100573.53;1634263;87;21242;-66
2022/09/08 10:32:13;;;;;;;5.53;3.10;;;;;;;28.61;23.86;100576.16;1633840;87;21105;-56
2022/09/08 10:35:03;;;;;;;4.80;3.10;;;;;;;28.46;23.82;100564.91;1622056;87;21118;-65
2022/09/08 10:37:47;;;;;;;5.67;3.50;;;;;;;28.20;24.09;100578.70;1634079;87;21031;-65
2022/09/08 10:40:44;;;;;;;6.53;3.15;;;;;;;28.03;24.17;100571.18;1634272;87;21517;-61
2022/09/08 10:43:37;;;;;;;7.15;3.35;;;;;;;27.93;24.25;100573.25;1629442;87;21183;-66
2022/09/08 10:46:29;;;;;;;4.00;2.83;;;;;;;27.76;24.19;100566.50;1633910;86;21729;-56
2022/09/08 10:49:16;;;;;;;3.95;2.95;;;;;;;27.67;24.87;100564.75;1634436;86;21015;-64
2022/09/08 10:52:26;;;;;;;4.05;3.00;;;;;;;27.71;24.63;100571.91;1634285;87;21278;-54
2022/09/08 10:55:28;;;;;;;4.15;3.05;;;;;;;27.57;24.87;100569.14;1634215;87;21118;-55
2022/09/08 10:58:31;;;;;;;4.47;2.85;;;;;;;27.72;24.85;100563.33;1633691;86;21098;-54
2022/09/08 11:01:38;;;;;;;3.65;2.77;;;;;;;27.87;24.39;100565.27;1634148;87;21061;-64
2022/09/08 11:04:49;;;;;;;4.78;3.15;;;;;;;27.68;24.49;100566.34;1633798;86;21032;-54
2022/09/08 11:07:52;;;;;;;7.40;3.80;;;;;;;27.23;24.70;100569.87;1632538;87;21106;-54
2022/09/08 11:10:51;;;;;;;6.70;3.47;;;;;;;26.83;25.04;100563.89;1626928;87;21150;-54
2022/09/08 11:13:34;;;;;;;4.83;3.17;;;;;;;26.56;25.94;100560.42;1625960;86;21849;-55
2022/09/08 11:16:39;;;;;;;6.17;3.40;;;;;;;26.48;25.79;100557.00;1627281;88;21004;-54
2022/09/08 11:19:22;;;;;;;6.60;4.10;;;;;;;26.19;25.77;100557.77;1626783;88;21082;-56
2022/09/08 11:22:24;;;;;;;4.80;3.70;;;;;;;25.77;26.11;100559.10;1600328;88;21089;-54
2022/09/08 11:25:33;;;;;;;4.73;3.30;;;;;;;25.42;26.28;100554.23;1626765;88;21008;-56
2022/09/08 11:28:26;;;;;;;8.43;3.70;;;;;;;25.45;26.83;100549.66;1627556;86;21277;-54
2022/09/08 11:31:19;;;;;;;4.93;3.30;;;;;;;25.88;26.20;100551.31;1626304;88;20931;-54
2022/09/08 11:34:22;;;;;;;7.33;4.43;;;;;;;26.26;26.24;100536.86;1588720;88;21079;-54
2022/09/08 11:37:30;;;;;;;5.40;3.37;;;;;;;26.57;26.03;100537.40;1583243;88;23125;-54
2022/09/08 11:40:35;;;;;;;6.97;3.60;;;;;;;26.60;25.45;100536.05;1627078;87;21864;-56
2022/09/08 11:43:26;;;;;;;4.80;3.10;;;;;;;26.14;25.80;100533.77;1626296;87;21745;-55
2022/09/08 11:46:30;;;;;;;5.28;3.75;;;;;;;25.77;26.42;100537.73;1626743;86;21442;-54
2022/09/08 11:49:25;;;;;;;6.77;4.30;;;;;;;25.50;26.37;100536.05;1626353;88;20998;-55
2022/09/08 11:52:16;;;;;;;7.90;3.97;;;;;;;25.09;26.76;100538.87;1626119;87;20975;-62
2022/09/08 11:55:08;;;;;;;;;;;;;;;24.75;27.14;100541.63;1628941;87;21019;-56
2022/09/08 11:58:21;;;;;;;5.10;3.77;;;;;;;24.59;27.06;100540.07;1582480;90;21301;-55
2022/09/08 12:01:09;;;;;;;6.00;3.87;;;;;;;24.28;27.43;100531.25;1556468;91;21516;-57
2022/09/08 12:04:16;;;;;;;5.90;4.33;;;;;;;24.06;28.07;100532.88;1579852;88;21575;-55
2022/09/08 12:06:58;;;;;;;5.80;4.03;;;;;;;23.89;28.58;100535.77;1584449;90;21081;-57
2022/09/08 12:09:58;;;;;;;7.03;4.43;;;;;;;23.76;28.89;100537.09;1577194;90;21525;-65
2022/09/08 12:12:54;;;;;;;7.10;4.23;;;;;;;23.73;29.29;100534.16;1576219;90;21898;-62
2022/09/08 12:15:46;;;;;;;6.27;4.07;;;;;;;23.71;29.87;100533.61;1624595;88;21086;-56
2022/09/08 12:18:41;;;;;;;6.43;3.87;;;;;;;23.66;30.16;100535.73;1623524;88;21589;-59
2022/09/08 12:21:47;;;;;;;9.63;3.90;;;;;;;23.47;29.97;100540.72;1624715;87;21553;-56
2022/09/08 12:24:51;;;;;;;8.77;5.10;;;;;;;23.25;30.25;100545.42;1624531;88;21051;-56
2022/09/08 12:27:57;;;;;;;6.73;4.60;;;;;;;23.02;30.71;100540.80;1623865;88;21239;-56
2022/09/08 12:31:12;;;;;;;6.83;5.17;;;;;;;22.80;31.37;100540.11;1624256;86;21019;-64